Time;durP1;ratioP1;P1;durP2;ratioP2;P2;SDS_P1;SDS_P2;PMS_P1;PMS_P2;Temp;Humidity;BMP_temperature;BMP_pressure;BME280_temperature;BME280_humidity;BME280_pressure;Samples;Min_cycle;Max_cycle;Signal;HPM_P1;HPM_P2
2023/08/11 00:00:04;;;;;;;4.47;2.40;;;;;;;;;;5061028;28;20029;-71
2023/08/11 00:02:30;;;;;;;5.90;2.72;;;;;;;;;;5065392;28;20026;-69
2023/08/11 00:04:57;;;;;;;5.47;2.80;;;;;;;;;;5057529;28;20435;-71
2023/08/11 00:07:23;;;;;;;7.07;3.13;;;;;;;;;;5058193;28;20075;-69
2023/08/11 00:09:49;;;;;;;6.00;3.42;;;;;;;;;;5061745;28;20029;-69
2023/08/11 00:12:15;;;;;;;8.43;3.03;;;;;;;;;;5057484;28;20111;-71
2023/08/11 00:14:41;;;;;;;11.15;3.65;;;;;;;;;;5069539;28;20048;-70
2023/08/11 00:17:07;;;;;;;6.55;3.00;;;;;;;;;;5057812;28;20117;-69
2023/08/11 00:19:33;;;;;;;9.98;3.10;;;;;;;;;;5057451;28;20546;-70
2023/08/11 00:21:59;;;;;;;10.40;3.42;;;;;;;;;;5050127;28;20037;-69
2023/08/11 00:24:26;;;;;;;8.60;3.50;;;;;;;;;;5050397;28;20132;-69
2023/08/11 00:26:52;;;;;;;7.05;3.25;;;;;;;;;;5055326;28;20037;-70
2023/08/11 00:29:18;;;;;;;9.60;3.45;;;;;;;;;;5062441;28;20416;-69
2023/08/11 00:31:45;;;;;;;10.68;3.08;;;;;;;;;;5062056;28;20032;-69
2023/08/11 00:34:11;;;;;;;8.27;3.50;;;;;;;;;;5056501;28;20027;-69
2023/08/11 00:36:37;;;;;;;10.35;4.13;;;;;;;;;;5054464;28;20412;-70
2023/08/11 00:39:03;;;;;;;11.18;4.10;;;;;;;;;;5059051;28;20032;-69
2023/08/11 00:41:30;;;;;;;9.88;3.90;;;;;;;;;;5053142;28;20040;-70
2023/08/11 00:43:56;;;;;;;10.60;3.30;;;;;;;;;;5056623;28;20037;-70
2023/08/11 00:46:24;;;;;;;12.07;3.67;;;;;;;;;;5062896;28;20047;-70
2023/08/11 00:48:53;;;;;;;9.55;4.10;;;;;;;;;;5064170;28;20025;-70
2023/08/11 00:51:21;;;;;;;8.85;3.35;;;;;;;;;;5065308;28;20039;-70
2023/08/11 00:53:47;;;;;;;9.63;3.45;;;;;;;;;;5051519;28;20060;-69
2023/08/11 00:56:14;;;;;;;11.20;3.80;;;;;;;;;;5055229;28;20499;-70
2023/08/11 00:58:41;;;;;;;11.15;3.28;;;;;;;;;;5059931;28;20043;-70
2023/08/11 01:01:07;;;;;;;10.57;3.88;;;;;;;;;;5062871;28;20102;-70
2023/08/11 01:03:34;;;;;;;8.68;3.05;;;;;;;;;;5056554;28;20418;-70
2023/08/11 01:06:10;;;;;;;9.55;3.60;;;;;;;;;;5057715;28;20507;-69
2023/08/11 01:08:38;;;;;;;5.30;3.15;;;;;;;;;;5057301;28;20029;-69
2023/08/11 01:11:17;;;;;;;11.95;4.07;;;;;;;;;;5065128;28;20043;-69
2023/08/11 01:13:45;;;;;;;9.40;3.20;;;;;;;;;;5053316;28;20484;-70
2023/08/11 01:16:13;;;;;;;8.00;2.72;;;;;;;;;;5060490;28;20401;-70
2023/08/11 01:18:39;;;;;;;9.57;2.75;;;;;;;;;;5056673;28;20109;-70
2023/08/11 01:21:11;;;;;;;6.20;2.80;;;;;;;;;;5061540;28;20024;-69
2023/08/11 01:23:37;;;;;;;10.85;3.42;;;;;;;;;;5058041;28;20028;-69
2023/08/11 01:26:04;;;;;;;7.07;3.85;;;;;;;;;;5052799;28;20024;-69
2023/08/11 01:28:30;;;;;;;9.13;3.10;;;;;;;;;;5071672;28;20584;-70
2023/08/11 01:30:56;;;;;;;7.35;3.53;;;;;;;;;;5049225;28;20021;-70
2023/08/11 01:33:22;;;;;;;10.18;3.13;;;;;;;;;;5050629;28;20036;-69
2023/08/11 01:35:48;;;;;;;13.13;3.30;;;;;;;;;;5048878;28;20036;-69
2023/08/11 01:38:14;;;;;;;9.95;2.75;;;;;;;;;;5045170;28;20417;-69
2023/08/11 01:40:40;;;;;;;9.00;3.42;;;;;;;;;;5071715;28;20040;-69
2023/08/11 01:43:08;;;;;;;9.38;3.03;;;;;;;;;;5061434;28;20448;-69
2023/08/11 01:45:34;;;;;;;8.38;3.72;;;;;;;;;;5057452;28;20028;-69
2023/08/11 01:48:01;;;;;;;9.93;3.67;;;;;;;;;;5051470;28;20115;-69
2023/08/11 01:50:28;;;;;;;12.27;3.50;;;;;;;;;;5059427;28;20035;-69
2023/08/11 01:52:56;;;;;;;6.05;3.15;;;;;;;;;;5047197;28;20472;-70
2023/08/11 01:55:24;;;;;;;14.50;4.10;;;;;;;;;;5054937;28;20041;-69
2023/08/11 01:57:51;;;;;;;9.90;3.15;;;;;;;;;;5055783;28;20033;-70
2023/08/11 02:00:17;;;;;;;8.10;2.92;;;;;;;;;;5063158;28;20064;-73
2023/08/11 02:02:43;;;;;;;9.27;2.78;;;;;;;;;;5047267;28;20028;-70
2023/08/11 02:05:11;;;;;;;10.48;3.45;;;;;;;;;;5058063;28;20104;-69
2023/08/11 02:07:38;;;;;;;8.52;3.38;;;;;;;;;;5045446;28;20024;-70
2023/08/11 02:10:04;;;;;;;12.38;3.28;;;;;;;;;;5059839;28;20032;-69
2023/08/11 02:12:30;;;;;;;9.75;3.80;;;;;;;;;;5055807;28;20066;-70
2023/08/11 02:14:57;;;;;;;7.15;3.28;;;;;;;;;;5059156;28;20040;-70
2023/08/11 02:17:23;;;;;;;13.02;4.25;;;;;;;;;;5066159;28;20036;-69
2023/08/11 02:19:50;;;;;;;5.75;3.00;;;;;;;;;;5048936;28;20036;-69
2023/08/11 02:22:16;;;;;;;6.88;3.05;;;;;;;;;;5057170;28;20396;-70
2023/08/11 02:24:42;;;;;;;8.98;4.05;;;;;;;;;;5051079;28;20111;-69
2023/08/11 02:27:09;;;;;;;12.30;3.80;;;;;;;;;;5057183;28;20104;-69
2023/08/11 02:29:36;;;;;;;6.15;2.90;;;;;;;;;;5048112;28;20423;-69
2023/08/11 02:32:07;;;;;;;9.00;3.50;;;;;;;;;;5046711;28;20044;-69
2023/08/11 02:34:34;;;;;;;11.45;4.07;;;;;;;;;;5053753;28;20053;-70
2023/08/11 02:37:00;;;;;;;10.15;3.63;;;;;;;;;;5047745;28;20187;-69
2023/08/11 02:39:27;;;;;;;8.15;2.95;;;;;;;;;;5062139;28;20527;-69
2023/08/11 02:41:53;;;;;;;14.93;3.75;;;;;;;;;;5062448;28;20029;-69
2023/08/11 02:44:19;;;;;;;11.35;3.40;;;;;;;;;;5063497;28;20389;-70
2023/08/11 02:46:45;;;;;;;10.65;4.35;;;;;;;;;;5057273;28;20082;-70
2023/08/11 02:49:11;;;;;;;7.25;3.00;;;;;;;;;;5063862;28;20135;-70
2023/08/11 02:51:37;;;;;;;13.35;3.33;;;;;;;;;;5068437;28;20082;-70
2023/08/11 02:54:04;;;;;;;11.65;3.08;;;;;;;;;;5063786;28;20039;-69
2023/08/11 02:56:30;;;;;;;6.78;2.90;;;;;;;;;;5059222;28;20044;-70
2023/08/11 02:58:57;;;;;;;11.23;3.70;;;;;;;;;;5061810;28;20033;-69
2023/08/11 03:01:24;;;;;;;11.27;3.15;;;;;;;;;;5065391;28;20097;-69
2023/08/11 03:03:51;;;;;;;7.22;4.18;;;;;;;;;;5062340;28;20036;-69
2023/08/11 03:06:17;;;;;;;7.07;3.67;;;;;;;;;;5062500;28;20431;-69
2023/08/11 03:08:43;;;;;;;12.55;3.75;;;;;;;;;;5056585;28;20407;-69
2023/08/11 03:11:09;;;;;;;15.90;4.32;;;;;;;;;;5049529;28;20035;-69
2023/08/11 03:13:36;;;;;;;9.02;3.70;;;;;;;;;;5062119;28;20028;-69
2023/08/11 03:16:02;;;;;;;10.05;3.88;;;;;;;;;;5057093;28;20112;-69
2023/08/11 03:18:28;;;;;;;10.07;3.30;;;;;;;;;;5059947;28;20032;-69
2023/08/11 03:20:54;;;;;;;8.60;3.30;;;;;;;;;;5065548;28;20033;-69
2023/08/11 03:23:21;;;;;;;12.77;4.00;;;;;;;;;;5061733;28;20029;-69
2023/08/11 03:25:47;;;;;;;9.18;3.83;;;;;;;;;;5062526;28;20439;-69
2023/08/11 03:28:13;;;;;;;6.38;3.22;;;;;;;;;;5055794;28;20043;-69
2023/08/11 03:30:41;;;;;;;10.18;3.22;;;;;;;;;;5056615;28;20107;-70
2023/08/11 03:33:08;;;;;;;14.15;4.80;;;;;;;;;;5059390;28;20041;-70
2023/08/11 03:35:34;;;;;;;15.30;4.38;;;;;;;;;;5048576;28;20036;-70
2023/08/11 03:38:00;;;;;;;11.00;3.33;;;;;;;;;;5050555;28;20498;-69
2023/08/11 03:40:26;;;;;;;9.57;3.25;;;;;;;;;;5059376;28;20028;-69
2023/08/11 03:42:53;;;;;;;7.65;3.55;;;;;;;;;;5062378;28;20024;-69
2023/08/11 03:45:19;;;;;;;15.95;3.65;;;;;;;;;;5066662;28;20025;-69
2023/08/11 03:47:45;;;;;;;12.50;3.80;;;;;;;;;;5052301;28;20028;-70
2023/08/11 03:50:11;;;;;;;8.52;3.63;;;;;;;;;;5062615;28;20028;-69
2023/08/11 03:52:38;;;;;;;8.38;3.72;;;;;;;;;;5047749;28;20101;-71
2023/08/11 03:55:04;;;;;;;6.93;3.40;;;;;;;;;;5062448;28;20233;-70
2023/08/11 03:57:31;;;;;;;10.13;4.05;;;;;;;;;;5060472;28;20117;-69
2023/08/11 03:59:57;;;;;;;8.63;3.45;;;;;;;;;;5061201;28;20480;-69
2023/08/11 04:02:23;;;;;;;6.75;3.38;;;;;;;;;;5068111;28;20036;-70
2023/08/11 04:04:49;;;;;;;8.68;3.65;;;;;;;;;;5050806;28;20032;-69
2023/08/11 04:07:16;;;;;;;15.20;3.90;;;;;;;;;;5058536;28;20067;-69
2023/08/11 04:09:46;;;;;;;14.25;3.80;;;;;;;;;;5060373;28;20028;-69
2023/08/11 04:12:12;;;;;;;9.70;3.80;;;;;;;;;;5066642;28;20062;-70
2023/08/11 04:14:38;;;;;;;11.80;4.05;;;;;;;;;;5069813;28;20035;-70
2023/08/11 04:17:07;;;;;;;6.55;3.25;;;;;;;;;;5057464;28;20025;-70
2023/08/11 04:19:33;;;;;;;12.05;4.10;;;;;;;;;;5056168;28;20381;-70
2023/08/11 04:21:59;;;;;;;12.43;3.83;;;;;;;;;;5062648;28;20027;-69
2023/08/11 04:24:25;;;;;;;13.77;4.30;;;;;;;;;;5057599;28;20043;-69
2023/08/11 04:26:51;;;;;;;6.47;3.65;;;;;;;;;;5065845;28;20037;-68
2023/08/11 04:29:17;;;;;;;9.35;4.38;;;;;;;;;;5056098;28;20033;-69
2023/08/11 04:31:44;;;;;;;8.68;3.60;;;;;;;;;;5061373;28;20061;-68
2023/08/11 04:34:10;;;;;;;12.55;4.53;;;;;;;;;;5053700;28;20432;-70
2023/08/11 04:36:37;;;;;;;13.43;4.40;;;;;;;;;;5050512;28;20467;-69
2023/08/11 04:39:03;;;;;;;8.75;4.32;;;;;;;;;;5057788;28;20369;-71
2023/08/11 04:41:30;;;;;;;9.57;3.70;;;;;;;;;;5057229;28;20373;-69
2023/08/11 04:43:56;;;;;;;12.00;3.78;;;;;;;;;;5056370;28;20020;-69
2023/08/11 04:46:22;;;;;;;9.88;3.97;;;;;;;;;;5065475;28;20037;-69
2023/08/11 04:48:48;;;;;;;9.60;3.70;;;;;;;;;;5064590;28;20024;-70
2023/08/11 04:51:14;;;;;;;10.23;4.57;;;;;;;;;;5074214;28;20038;-70
2023/08/11 04:53:40;;;;;;;10.00;3.88;;;;;;;;;;5053237;28;20550;-69
2023/08/11 04:56:06;;;;;;;11.35;3.95;;;;;;;;;;5067863;28;20103;-69
2023/08/11 04:58:33;;;;;;;12.05;5.53;;;;;;;;;;5059397;28;20029;-70
2023/08/11 05:01:04;;;;;;;8.25;3.60;;;;;;;;;;5069355;28;20020;-69
2023/08/11 05:03:30;;;;;;;11.95;4.70;;;;;;;;;;5057650;28;20508;-70
2023/08/11 05:05:56;;;;;;;15.45;4.15;;;;;;;;;;5051368;28;20037;-69
2023/08/11 05:08:22;;;;;;;9.50;4.30;;;;;;;;;;5052822;28;20385;-69
2023/08/11 05:10:48;;;;;;;11.88;4.78;;;;;;;;;;5065798;28;20036;-70
2023/08/11 05:13:14;;;;;;;16.38;3.72;;;;;;;;;;5058619;28;20029;-69
2023/08/11 05:15:41;;;;;;;10.75;4.03;;;;;;;;;;5054108;28;20031;-69
2023/08/11 05:18:07;;;;;;;15.73;3.95;;;;;;;;;;5065127;28;20033;-69
2023/08/11 05:20:33;;;;;;;8.70;3.72;;;;;;;;;;5063338;28;20050;-69
2023/08/11 05:22:59;;;;;;;11.65;4.03;;;;;;;;;;5074821;28;20024;-69
2023/08/11 05:25:26;;;;;;;12.63;3.30;;;;;;;;;;5062418;28;20032;-69
2023/08/11 05:27:52;;;;;;;10.05;3.65;;;;;;;;;;5060053;28;20555;-69
2023/08/11 05:30:18;;;;;;;9.30;3.38;;;;;;;;;;5053591;28;20029;-69
2023/08/11 05:32:44;;;;;;;13.30;3.67;;;;;;;;;;5056045;28;20032;-69
2023/08/11 05:35:12;;;;;;;8.88;3.15;;;;;;;;;;5054395;28;20377;-69
2023/08/11 05:37:38;;;;;;;12.32;4.18;;;;;;;;;;5059259;28;20052;-69
2023/08/11 05:40:07;;;;;;;10.32;4.60;;;;;;;;;;5053572;28;20082;-69
2023/08/11 05:42:33;;;;;;;12.82;3.72;;;;;;;;;;5053565;28;20024;-69
2023/08/11 05:44:59;;;;;;;11.23;3.85;;;;;;;;;;5055887;28;20112;-69
2023/08/11 05:47:25;;;;;;;8.55;3.17;;;;;;;;;;5055026;28;20501;-69
2023/08/11 05:49:53;;;;;;;16.73;3.95;;;;;;;;;;5053120;28;20040;-70
2023/08/11 05:52:19;;;;;;;12.82;3.50;;;;;;;;;;5053599;28;20389;-70
2023/08/11 05:54:45;;;;;;;11.73;4.57;;;;;;;;;;5063465;28;20020;-69
2023/08/11 05:57:12;;;;;;;8.70;3.05;;;;;;;;;;5057840;28;20358;-71
2023/08/11 05:59:38;;;;;;;11.38;3.42;;;;;;;;;;5067217;28;20032;-69
2023/08/11 06:02:04;;;;;;;5.85;2.90;;;;;;;;;;5051952;28;20020;-69
2023/08/11 06:04:30;;;;;;;8.75;3.38;;;;;;;;;;5055065;28;20071;-69
2023/08/11 06:06:56;;;;;;;9.40;3.05;;;;;;;;;;5053635;28;20059;-70
2023/08/11 06:09:23;;;;;;;7.20;4.43;;;;;;;;;;5049014;28;20493;-69
2023/08/11 06:11:51;;;;;;;8.02;2.95;;;;;;;;;;5050937;28;20060;-69
2023/08/11 06:14:17;;;;;;;6.63;2.70;;;;;;;;;;5049325;28;20181;-69
2023/08/11 06:16:44;;;;;;;9.20;3.40;;;;;;;;;;5064017;28;20049;-69
2023/08/11 06:19:10;;;;;;;6.50;2.53;;;;;;;;;;5061012;28;20020;-69
2023/08/11 06:21:36;;;;;;;13.18;4.18;;;;;;;;;;5048303;28;20080;-69
2023/08/11 06:24:03;;;;;;;13.35;3.28;;;;;;;;;;5055215;28;20479;-70
2023/08/11 06:26:29;;;;;;;7.93;2.55;;;;;;;;;;5076064;28;20025;-71
2023/08/11 06:28:55;;;;;;;10.40;3.17;;;;;;;;;;5057786;28;20032;-70
2023/08/11 06:31:21;;;;;;;9.77;2.70;;;;;;;;;;5048499;28;20442;-69
2023/08/11 06:33:48;;;;;;;16.67;3.42;;;;;;;;;;5054825;28;20064;-69
2023/08/11 06:36:14;;;;;;;6.65;2.63;;;;;;;;;;5058371;28;20049;-69
2023/08/11 06:38:40;;;;;;;10.15;3.08;;;;;;;;;;5053807;28;20032;-70
2023/08/11 06:41:06;;;;;;;6.43;2.50;;;;;;;;;;5049907;28;20020;-69
2023/08/11 06:43:32;;;;;;;5.70;2.80;;;;;;;;;;5058759;28;20438;-69
2023/08/11 06:45:58;;;;;;;5.25;2.30;;;;;;;;;;5052890;28;20036;-69
2023/08/11 06:48:25;;;;;;;6.63;2.85;;;;;;;;;;5059428;28;20033;-69
2023/08/11 06:50:51;;;;;;;10.52;2.95;;;;;;;;;;5058229;28;20627;-69
2023/08/11 06:53:17;;;;;;;5.43;2.20;;;;;;;;;;5049997;28;20044;-71
2023/08/11 06:55:43;;;;;;;10.25;2.65;;;;;;;;;;5064603;28;20483;-69
2023/08/11 06:58:09;;;;;;;9.88;3.28;;;;;;;;;;5057471;28;20439;-70
2023/08/11 07:00:36;;;;;;;7.03;2.75;;;;;;;;;;5052375;28;20033;-69
2023/08/11 07:03:03;;;;;;;10.02;3.30;;;;;;;;;;5050938;28;20025;-70
2023/08/11 07:05:31;;;;;;;6.32;2.42;;;;;;;;;;5047472;28;20029;-69
2023/08/11 07:07:57;;;;;;;9.02;2.53;;;;;;;;;;5055964;28;20381;-69
2023/08/11 07:10:23;;;;;;;10.88;3.17;;;;;;;;;;5055784;28;20067;-70
2023/08/11 07:12:52;;;;;;;11.25;2.70;;;;;;;;;;5048064;28;20032;-70
2023/08/11 07:15:18;;;;;;;7.45;2.80;;;;;;;;;;5047478;28;20456;-70
2023/08/11 07:17:44;;;;;;;8.35;2.50;;;;;;;;;;5054121;28;20109;-70
2023/08/11 07:20:10;;;;;;;5.63;2.28;;;;;;;;;;5056963;28;20024;-70
2023/08/11 07:22:37;;;;;;;6.47;2.88;;;;;;;;;;5055935;28;20023;-69
2023/08/11 07:25:03;;;;;;;7.20;3.38;;;;;;;;;;5064804;28;20036;-69
2023/08/11 07:27:32;;;;;;;14.50;3.78;;;;;;;;;;5056365;28;20032;-69
2023/08/11 07:29:58;;;;;;;6.57;2.65;;;;;;;;;;5052462;28;20400;-70
2023/08/11 07:32:24;;;;;;;5.32;2.38;;;;;;;;;;5060551;28;20060;-70
2023/08/11 07:34:50;;;;;;;7.00;2.60;;;;;;;;;;5061669;28;20138;-70
2023/08/11 07:37:17;;;;;;;7.15;2.58;;;;;;;;;;5057873;28;20427;-70
2023/08/11 07:39:43;;;;;;;6.25;2.75;;;;;;;;;;5054620;28;20412;-70
2023/08/11 07:42:09;;;;;;;9.70;3.20;;;;;;;;;;5057789;28;20649;-69
2023/08/11 07:44:35;;;;;;;6.03;2.75;;;;;;;;;;5059460;28;20087;-69
2023/08/11 07:47:02;;;;;;;8.73;3.30;;;;;;;;;;5055547;28;20039;-70
2023/08/11 07:49:28;;;;;;;7.55;3.30;;;;;;;;;;5070892;28;20151;-69
2023/08/11 07:51:57;;;;;;;12.43;3.35;;;;;;;;;;5063173;28;20063;-70
2023/08/11 07:54:23;;;;;;;7.20;2.80;;;;;;;;;;5051972;28;20032;-70
2023/08/11 07:56:49;;;;;;;10.70;2.85;;;;;;;;;;5047128;28;20040;-70
2023/08/11 07:59:15;;;;;;;7.35;2.67;;;;;;;;;;5052343;28;20024;-70
2023/08/11 08:01:42;;;;;;;8.02;3.17;;;;;;;;;;5052073;28;21110;-70
2023/08/11 08:04:10;;;;;;;7.55;3.15;;;;;;;;;;5047352;28;20166;-71
2023/08/11 08:06:43;;;;;;;12.27;3.97;;;;;;;;;;5059266;28;20016;-70
2023/08/11 08:09:11;;;;;;;15.05;3.90;;;;;;;;;;5055458;28;20037;-70
2023/08/11 08:11:38;;;;;;;11.55;3.33;;;;;;;;;;5052770;28;20025;-71
2023/08/11 08:14:04;;;;;;;8.85;3.33;;;;;;;;;;5056366;28;20051;-70
2023/08/11 08:16:32;;;;;;;13.30;3.83;;;;;;;;;;5052465;28;20392;-71
2023/08/11 08:18:59;;;;;;;9.27;3.30;;;;;;;;;;5057791;28;20029;-68
2023/08/11 08:21:25;;;;;;;11.18;3.20;;;;;;;;;;5056805;28;20412;-69
2023/08/11 08:23:51;;;;;;;10.40;3.67;;;;;;;;;;5054021;28;20035;-69
2023/08/11 08:26:17;;;;;;;9.40;3.10;;;;;;;;;;5056685;28;20437;-69
2023/08/11 08:28:43;;;;;;;9.65;3.65;;;;;;;;;;5054013;28;20036;-69
2023/08/11 08:31:12;;;;;;;8.90;4.13;;;;;;;;;;5050645;28;20120;-69
2023/08/11 08:33:38;;;;;;;8.75;3.50;;;;;;;;;;5053035;28;20025;-69
2023/08/11 08:36:04;;;;;;;13.75;4.65;;;;;;;;;;5052933;28;20068;-71
2023/08/11 08:38:31;;;;;;;9.07;3.00;;;;;;;;;;5049914;28;20031;-70
2023/08/11 08:40:57;;;;;;;11.68;4.35;;;;;;;;;;5053125;28;20035;-71
2023/08/11 08:43:23;;;;;;;12.02;4.78;;;;;;;;;;5054235;28;20032;-69
2023/08/11 08:45:51;;;;;;;14.88;5.00;;;;;;;;;;5052792;28;20507;-69
2023/08/11 08:48:22;;;;;;;12.45;3.45;;;;;;;;;;5051529;28;20040;-69
2023/08/11 08:50:48;;;;;;;10.40;3.55;;;;;;;;;;5044767;28;20034;-67
2023/08/11 08:53:14;;;;;;;10.23;3.47;;;;;;;;;;5050285;28;20067;-70
2023/08/11 08:55:41;;;;;;;10.07;4.28;;;;;;;;;;5047536;28;20033;-70
2023/08/11 08:58:09;;;;;;;8.40;3.00;;;;;;;;;;5051089;28;20029;-66
2023/08/11 09:00:35;;;;;;;13.40;3.38;;;;;;;;;;5044439;28;20025;-70
2023/08/11 09:03:03;;;;;;;11.63;3.53;;;;;;;;;;5062558;28;20075;-67
2023/08/11 09:05:30;;;;;;;8.57;3.08;;;;;;;;;;5051691;28;20087;-71
2023/08/11 09:07:56;;;;;;;8.18;4.13;;;;;;;;;;5051297;28;20028;-70
2023/08/11 09:10:22;;;;;;;11.60;3.97;;;;;;;;;;5047233;28;20036;-71
2023/08/11 09:12:51;;;;;;;11.07;3.17;;;;;;;;;;5046916;28;20040;-72
2023/08/11 09:15:18;;;;;;;8.77;3.80;;;;;;;;;;5048986;28;20052;-70
2023/08/11 09:17:44;;;;;;;9.80;3.30;;;;;;;;;;5049985;28;20380;-69
2023/08/11 09:20:12;;;;;;;14.93;4.18;;;;;;;;;;5048803;28;20412;-70
2023/08/11 09:22:38;;;;;;;5.45;3.20;;;;;;;;;;5048754;28;20028;-71
2023/08/11 09:25:06;;;;;;;11.70;3.40;;;;;;;;;;5042551;28;20135;-69
2023/08/11 09:27:32;;;;;;;8.98;3.20;;;;;;;;;;5050467;28;20025;-70
2023/08/11 09:29:59;;;;;;;11.30;3.45;;;;;;;;;;5044476;28;20389;-70
2023/08/11 09:32:25;;;;;;;13.52;3.58;;;;;;;;;;5047690;28;20024;-70
2023/08/11 09:34:52;;;;;;;10.82;3.45;;;;;;;;;;5062462;28;20052;-70
2023/08/11 09:37:18;;;;;;;11.65;2.90;;;;;;;;;;5047209;28;20102;-70
2023/08/11 09:39:44;;;;;;;11.32;3.20;;;;;;;;;;5046464;28;20035;-71
2023/08/11 09:42:10;;;;;;;14.35;4.53;;;;;;;;;;5049347;28;20502;-72
2023/08/11 09:44:38;;;;;;;10.80;3.47;;;;;;;;;;5049687;28;20033;-67
2023/08/11 09:47:04;;;;;;;12.20;3.13;;;;;;;;;;5044882;28;20153;-67
2023/08/11 09:49:30;;;;;;;8.07;3.38;;;;;;;;;;5048898;28;20029;-70
2023/08/11 09:51:57;;;;;;;10.38;3.53;;;;;;;;;;5047397;28;20493;-69
2023/08/11 09:54:23;;;;;;;7.47;3.30;;;;;;;;;;5051128;28;20028;-69
2023/08/11 09:56:49;;;;;;;11.98;3.22;;;;;;;;;;5047871;28;20525;-70
2023/08/11 09:59:18;;;;;;;9.98;3.72;;;;;;;;;;5044755;28;20051;-67
2023/08/11 10:01:45;;;;;;;15.27;5.05;;;;;;;;;;5045377;28;20059;-66
2023/08/11 10:04:12;;;;;;;9.63;3.25;;;;;;;;;;5045766;28;20029;-69
2023/08/11 10:06:40;;;;;;;10.15;3.35;;;;;;;;;;5037937;28;20442;-66
2023/08/11 10:09:07;;;;;;;13.35;4.00;;;;;;;;;;5042722;28;20035;-70
2023/08/11 10:11:35;;;;;;;9.80;3.40;;;;;;;;;;5048888;28;20038;-69
2023/08/11 10:14:03;;;;;;;14.55;3.47;;;;;;;;;;5045450;28;20028;-71
2023/08/11 10:16:30;;;;;;;14.05;4.32;;;;;;;;;;5047486;28;20095;-70
2023/08/11 10:18:56;;;;;;;9.27;4.82;;;;;;;;;;5047859;28;20153;-71
2023/08/11 10:21:25;;;;;;;18.02;3.95;;;;;;;;;;5046177;28;20059;-71
2023/08/11 10:23:53;;;;;;;16.60;4.05;;;;;;;;;;5051201;28;20037;-70
2023/08/11 10:26:19;;;;;;;10.48;3.65;;;;;;;;;;5041459;28;20500;-70
2023/08/11 10:28:45;;;;;;;8.98;3.83;;;;;;;;;;5046837;28;20120;-69
2023/08/11 10:31:11;;;;;;;9.75;3.53;;;;;;;;;;5047968;28;20826;-69
2023/08/11 10:33:38;;;;;;;12.55;3.60;;;;;;;;;;5046687;28;20116;-68
2023/08/11 10:36:05;;;;;;;7.53;3.30;;;;;;;;;;5044759;28;20041;-69
2023/08/11 10:38:32;;;;;;;14.02;4.55;;;;;;;;;;5046939;28;20025;-68
2023/08/11 10:41:25;;;;;;;14.52;3.92;;;;;;;;;;5046276;28;21012;-67
2023/08/11 10:43:51;;;;;;;13.52;3.63;;;;;;;;;;5031769;28;20614;-68
2023/08/11 10:46:24;;;;;;;15.63;3.88;;;;;;;;;;5049449;28;20484;-68
2023/08/11 10:48:59;;;;;;;15.43;3.97;;;;;;;;;;5046953;28;20515;-65
2023/08/11 10:51:27;;;;;;;12.05;3.70;;;;;;;;;;5046957;28;20463;-67
2023/08/11 10:53:55;;;;;;;19.85;5.32;;;;;;;;;;5050667;28;20029;-66
2023/08/11 10:56:47;;;;;;;7.93;3.00;;;;;;;;;;5050144;28;20086;-68
2023/08/11 10:59:15;;;;;;;9.02;3.33;;;;;;;;;;5048488;28;20041;-68
2023/08/11 11:01:45;;;;;;;13.02;5.05;;;;;;;;;;5048612;28;20404;-67
2023/08/11 11:04:11;;;;;;;28.92;5.75;;;;;;;;;;5049218;28;20522;-67
2023/08/11 11:06:39;;;;;;;17.15;4.32;;;;;;;;;;5047286;28;20375;-70
2023/08/11 11:09:06;;;;;;;11.50;3.53;;;;;;;;;;5051226;28;20366;-71
2023/08/11 11:11:33;;;;;;;11.95;3.75;;;;;;;;;;5056395;28;20508;-71
2023/08/11 11:13:59;;;;;;;9.07;3.25;;;;;;;;;;5051006;28;20020;-71
2023/08/11 11:16:27;;;;;;;9.93;3.67;;;;;;;;;;5067604;28;20445;-71
2023/08/11 11:18:53;;;;;;;15.25;4.22;;;;;;;;;;5051008;28;20064;-71
2023/08/11 11:21:19;;;;;;;11.77;3.97;;;;;;;;;;5055687;28;20553;-71
2023/08/11 11:23:46;;;;;;;9.10;3.58;;;;;;;;;;5054754;28;20115;-70
2023/08/11 11:26:16;;;;;;;11.10;3.45;;;;;;;;;;5052058;28;20024;-70
2023/08/11 11:28:42;;;;;;;12.30;4.57;;;;;;;;;;5050820;28;20040;-70
2023/08/11 11:31:08;;;;;;;11.70;3.03;;;;;;;;;;5054141;28;20508;-70
2023/08/11 11:33:34;;;;;;;7.13;3.17;;;;;;;;;;5048146;28;20036;-68
2023/08/11 11:36:00;;;;;;;9.75;3.15;;;;;;;;;;5056112;28;20044;-67
2023/08/11 11:38:27;;;;;;;11.13;3.45;;;;;;;;;;5054503;28;20024;-67
2023/08/11 11:40:53;;;;;;;13.10;3.17;;;;;;;;;;5056828;28;20484;-68
2023/08/11 11:43:20;;;;;;;15.43;4.82;;;;;;;;;;5048447;28;20032;-67
2023/08/11 11:45:48;;;;;;;10.55;3.67;;;;;;;;;;5046781;28;20032;-65
2023/08/11 11:48:14;;;;;;;9.77;3.63;;;;;;;;;;5054832;28;20036;-69
2023/08/11 11:50:40;;;;;;;10.48;3.97;;;;;;;;;;5053135;28;20024;-66
2023/08/11 11:53:06;;;;;;;10.00;3.85;;;;;;;;;;5047862;28;20127;-66
2023/08/11 11:55:32;;;;;;;10.27;3.78;;;;;;;;;;5051393;28;20658;-69
2023/08/11 11:57:59;;;;;;;9.82;3.15;;;;;;;;;;5051255;28;20024;-69
2023/08/11 12:00:25;;;;;;;11.23;3.13;;;;;;;;;;5055179;28;20155;-69
2023/08/11 12:02:53;;;;;;;11.07;3.70;;;;;;;;;;5047321;28;20131;-68
2023/08/11 12:05:21;;;;;;;15.93;3.55;;;;;;;;;;5048919;28;20254;-68
2023/08/11 12:07:47;;;;;;;9.55;4.03;;;;;;;;;;5051198;28;20051;-68
2023/08/11 12:10:15;;;;;;;19.02;5.95;;;;;;;;;;5049959;28;20033;-68
2023/08/11 12:12:42;;;;;;;13.60;3.92;;;;;;;;;;5049270;28;20028;-68
2023/08/11 12:15:08;;;;;;;17.73;4.53;;;;;;;;;;5054182;28;20029;-68
2023/08/11 12:17:36;;;;;;;10.20;3.47;;;;;;;;;;5046608;28;20704;-68
2023/08/11 12:20:06;;;;;;;14.32;4.13;;;;;;;;;;5046128;28;20743;-68
2023/08/11 12:22:32;;;;;;;12.43;3.53;;;;;;;;;;5055020;28;20143;-68
2023/08/11 12:24:58;;;;;;;10.77;3.75;;;;;;;;;;5049258;28;20033;-68
2023/08/11 12:27:25;;;;;;;6.60;3.20;;;;;;;;;;5050140;28;20139;-68
2023/08/11 12:29:51;;;;;;;17.00;4.05;;;;;;;;;;5067487;28;20087;-68
2023/08/11 12:32:17;;;;;;;10.05;3.33;;;;;;;;;;5052797;28;20392;-69
2023/08/11 12:34:43;;;;;;;10.55;4.35;;;;;;;;;;5049496;28;20041;-67
2023/08/11 12:37:09;;;;;;;10.95;3.30;;;;;;;;;;5055225;28;20052;-67
2023/08/11 12:39:35;;;;;;;12.02;3.95;;;;;;;;;;5050848;28;20138;-66
2023/08/11 12:42:01;;;;;;;14.35;5.53;;;;;;;;;;5054369;28;20115;-66
2023/08/11 12:44:27;;;;;;;14.75;4.28;;;;;;;;;;5048471;28;20386;-65
2023/08/11 12:46:56;;;;;;;9.73;3.50;;;;;;;;;;5054261;28;20116;-63
2023/08/11 12:49:22;;;;;;;12.13;3.80;;;;;;;;;;5049294;28;20156;-63
2023/08/11 12:51:51;;;;;;;15.77;3.65;;;;;;;;;;5049973;28;20036;-66
2023/08/11 12:54:17;;;;;;;16.90;4.35;;;;;;;;;;5049993;28;20031;-66
2023/08/11 12:56:43;;;;;;;11.38;3.70;;;;;;;;;;5042757;28;20033;-65
2023/08/11 12:59:10;;;;;;;15.13;3.63;;;;;;;;;;5054819;28;20032;-68
2023/08/11 13:01:36;;;;;;;10.80;4.43;;;;;;;;;;5043413;28;20028;-67
2023/08/11 13:04:03;;;;;;;9.52;3.58;;;;;;;;;;5055112;28;20492;-66
2023/08/11 13:06:30;;;;;;;12.07;3.75;;;;;;;;;;5050047;28;20029;-67
2023/08/11 13:08:56;;;;;;;11.63;3.88;;;;;;;;;;5050379;28;20048;-67
2023/08/11 13:11:22;;;;;;;10.32;3.20;;;;;;;;;;5049619;28;20036;-67
2023/08/11 13:13:49;;;;;;;9.40;3.53;;;;;;;;;;5049919;28;20932;-64
2023/08/11 13:16:16;;;;;;;16.63;3.85;;;;;;;;;;5046520;28;20117;-65
2023/08/11 13:18:42;;;;;;;9.45;4.05;;;;;;;;;;5067512;28;20590;-66
2023/08/11 13:21:08;;;;;;;11.65;3.20;;;;;;;;;;5046376;28;20894;-64
2023/08/11 13:23:34;;;;;;;12.93;3.72;;;;;;;;;;5048588;28;20028;-65
2023/08/11 13:26:01;;;;;;;9.80;3.53;;;;;;;;;;5053156;28;20571;-64
2023/08/11 13:28:27;;;;;;;12.60;3.90;;;;;;;;;;5049781;28;20477;-65
2023/08/11 13:30:53;;;;;;;11.77;3.45;;;;;;;;;;5051306;28;20029;-66
2023/08/11 13:33:20;;;;;;;10.05;3.95;;;;;;;;;;5049713;28;20492;-65
2023/08/11 13:35:47;;;;;;;9.93;4.53;;;;;;;;;;5052252;28;21365;-68
2023/08/11 13:38:14;;;;;;;12.77;3.58;;;;;;;;;;5053904;28;21344;-66
2023/08/11 13:40:44;;;;;;;14.50;4.80;;;;;;;;;;5057254;28;20441;-68
2023/08/11 13:43:10;;;;;;;14.65;4.13;;;;;;;;;;5065780;28;20047;-67
2023/08/11 13:45:36;;;;;;;16.10;3.47;;;;;;;;;;5039700;28;20086;-68
2023/08/11 13:48:02;;;;;;;12.55;2.97;;;;;;;;;;5050524;28;20043;-67
2023/08/11 13:50:28;;;;;;;14.05;3.72;;;;;;;;;;5050392;28;20062;-68
2023/08/11 13:52:54;;;;;;;10.65;3.35;;;;;;;;;;5043944;28;20036;-68
2023/08/11 13:55:21;;;;;;;10.18;3.58;;;;;;;;;;5048132;28;20071;-68
2023/08/11 13:57:48;;;;;;;12.38;3.60;;;;;;;;;;5050716;28;20149;-67
2023/08/11 14:00:14;;;;;;;12.68;3.58;;;;;;;;;;5048379;28;21036;-67
2023/08/11 14:02:41;;;;;;;10.80;3.20;;;;;;;;;;5043766;28;20028;-64
2023/08/11 14:05:07;;;;;;;15.80;3.78;;;;;;;;;;5048679;28;20109;-71
2023/08/11 14:07:33;;;;;;;12.10;3.58;;;;;;;;;;5052336;28;20994;-67
2023/08/11 14:09:59;;;;;;;10.60;3.50;;;;;;;;;;5050278;28;20032;-68
2023/08/11 14:12:26;;;;;;;9.13;3.38;;;;;;;;;;5049460;28;20586;-66
2023/08/11 14:14:52;;;;;;;11.65;3.50;;;;;;;;;;5049931;28;20071;-68
2023/08/11 14:17:18;;;;;;;11.27;3.63;;;;;;;;;;5045693;28;20641;-68
2023/08/11 14:19:44;;;;;;;7.45;3.00;;;;;;;;;;5046269;28;20048;-67
2023/08/11 14:22:10;;;;;;;14.68;4.63;;;;;;;;;;5047180;28;20027;-67
2023/08/11 14:24:36;;;;;;;13.20;3.20;;;;;;;;;;5049443;28;20028;-66
2023/08/11 14:27:03;;;;;;;12.55;4.07;;;;;;;;;;5047945;28;20027;-66
2023/08/11 14:29:29;;;;;;;8.88;3.55;;;;;;;;;;5035724;28;20082;-67
2023/08/11 14:31:55;;;;;;;12.52;3.67;;;;;;;;;;5050877;28;20029;-65